Flight Track Log - Related Links

Times and Time Zones

All times are in EDT time to prevent confusion due to time zone crossing. See the N960DL flight status page for this flight to view local times or setup timezone preferences in your user account.

Time Position Orientation Groundspeed Altitude Reporting Facility
EDT Latitude Longitude Course Direction KTS MPH feet Rate Location/Type
Tue 07:06:51 PM 41.9000 -87.9000 180° South 199 229 3,300  Level Chicago TRACON
Tue 07:08:00 PM 41.6721 -87.7615 180° South  Level Estimated
Tue 07:08:21 PM 41.8214 -87.9567 208° Southwest 234 269 7,400  Level Chicago Center
Tue 07:09:00 PM 41.5689 -87.7133 176° South  Level Estimated
Tue 07:09:23 PM 41.7344 -87.9506 177° South 266 306 10,900  Level Chicago Center
Tue 07:10:00 PM 41.4817 -87.8013 217° Southwest  Level FlightAware Approximate
Tue 07:10:25 PM 41.6536 -87.9372 173° South 289 333 12,600  Level Chicago Center
Tue 07:11:00 PM 41.3789 -87.7518 180° South  Level Estimated
Tue 07:11:27 PM 41.5539 -87.9139 170° South 363 418 14,100  Level Chicago Center
Tue 07:12:00 PM 41.2761 -87.7024 180° South  Level Estimated
Tue 07:12:29 PM 41.4428 -87.8864 169° South 393 452 16,500  Level Chicago Center
Tue 07:13:31 PM 41.3267 -87.8869 180° South 414 476 19,000 2,032 Climbing Chicago Center
Tue 07:14:33 PM 41.2072 -87.8922 182° South 421 484 20,700 1,742 Climbing Chicago Center
Tue 07:15:35 PM 41.0806 -87.8850 178° South 453 521 22,600 2,081 Climbing Chicago Center
Tue 07:16:37 PM 40.9289 -87.8789 178° South 454 522 25,000 2,129 Climbing Chicago Center
Tue 07:17:39 PM 40.8019 -87.8747 179° South 456 525 27,000 1,790 Climbing Chicago Center
Tue 07:18:41 PM 40.6758 -87.8678 178° South 456 525 28,700 1,597 Climbing Chicago Center
Tue 07:19:43 PM 40.5506 -87.8361 169° South 460 529 30,300 1,452 Climbing Chicago Center
Tue 07:20:45 PM 40.4289 -87.8011 168° South 453 521 31,700 1,304 Climbing Chicago Center
Tue 07:21:38 PM 40.3175 -87.7739 169° South 450 518 32,800 1,043 Climbing Indianapolis Center
Tue 07:22:40 PM 40.1917 -87.7419 169° South 455 524 33,700 976 Climbing Indianapolis Center
Tue 07:23:41 PM 40.0503 -87.7019 168° South 446 513 34,800 634 Climbing Indianapolis Center
Tue 07:24:43 PM 39.9275 -87.6683 168° South 450 518 35,000 97 Climbing Indianapolis Center
Tue 07:25:45 PM 39.8050 -87.6336 168° South 449 517 35,000  Level Indianapolis Center
Tue 07:26:47 PM 39.6806 -87.6000 168° South 454 522 35,000  Level Indianapolis Center
Tue 07:27:49 PM 39.5561 -87.5675 169° South 455 524 35,000  Level Indianapolis Center
Tue 07:28:51 PM 39.4319 -87.5333 168° South 454 522 35,000  Level Indianapolis Center
Tue 07:29:52 PM 39.2847 -87.4942 168° South 460 529 35,000  Level Indianapolis Center
Tue 07:30:54 PM 39.1581 -87.4603 168° South 463 533 35,000  Level Indianapolis Center
Tue 07:31:56 PM 39.0336 -87.4278 169° South 460 529 35,000  Level Indianapolis Center
Tue 07:32:58 PM 38.9086 -87.3942 168° South 459 528 35,000  Level Indianapolis Center
Tue 07:34:00 PM 38.7822 -87.3603 168° South 463 533 35,000  Level Indianapolis Center
Tue 07:35:02 PM 38.6581 -87.3272 168° South 457 526 35,000  Level Indianapolis Center
Tue 07:36:04 PM 38.5350 -87.2958 169° South 453 521 35,000  Level Indianapolis Center
Tue 07:37:06 PM 38.3869 -87.2594 169° South 455 524 35,000  Level Indianapolis Center
Tue 07:38:07 PM 38.2642 -87.2286 169° South 460 529 35,000  Level Indianapolis Center
Tue 07:39:09 PM 38.1411 -87.1947 168° South 460 529 35,000  Level Indianapolis Center
Tue 07:40:11 PM 38.0178 -87.1625 168° South 455 524 35,000  Level Indianapolis Center
Tue 07:41:13 PM 37.8953 -87.1294 168° South 451 519 35,000  Level Indianapolis Center
Tue 07:42:15 PM 37.7475 -87.0911 168° South 450 518 35,000  Level Indianapolis Center
Tue 07:43:16 PM 37.6253 -87.0592 168° South 448 516 35,000  Level Indianapolis Center
Tue 07:44:09 PM 37.5164 -87.0314 169° South 447 514 35,000  Level Memphis Center
Tue 07:45:09 PM 37.3928 -87.0025 169° South 452 520 35,000  Level Memphis Center
Tue 07:46:09 PM 37.2711 -86.9711 168° South 452 520 35,000  Level Memphis Center
Tue 07:47:09 PM 37.1494 -86.9425 169° South 447 514 35,000  Level Memphis Center
Tue 07:48:09 PM 37.0236 -86.9117 169° South 457 526 35,000  Level Memphis Center
Tue 07:49:09 PM 36.8975 -86.8781 168° South 457 526 35,000  Level Memphis Center
Tue 07:50:09 PM 36.7883 -86.8492 168° South 457 526 35,000  Level Memphis Center
Tue 07:51:09 PM 36.6644 -86.8158 168° South 452 520 35,000  Level Memphis Center
Tue 07:52:09 PM 36.5383 -86.7800 167° South 452 520 35,000 -400 Level Memphis Center
Tue 07:53:09 PM 36.4103 -86.7469 168° South 458 527 34,200 -1,000 Descending Memphis Center
Tue 07:54:09 PM 36.2717 -86.7094 168° South 471 542 33,000 -600 Descending Memphis Center
Tue 07:55:09 PM 36.1478 -86.6789 169° South 463 533 33,000  Level Memphis Center
Tue 07:56:09 PM 36.0347 -86.5967 150° Southeast 458 527 33,000 -250 Level Memphis Center
Tue 07:57:09 PM 35.9236 -86.5044 146° Southeast 473 544 32,500 -674 Descending Memphis Center
Tue 07:59:07 PM 35.7217 -86.3408 147° Southeast 469 540 31,000 -506 Descending Atlanta Center
Tue 08:00:07 PM 35.6150 -86.2536 146° Southeast 469 540 31,000  Level Atlanta Center
Tue 08:01:07 PM 35.5036 -86.1689 148° Southeast 474 545 31,000 -650 Level Atlanta Center
Tue 08:02:07 PM 35.3822 -86.0742 148° Southeast 474 545 29,700 -2,050 Descending Atlanta Center
Tue 08:03:07 PM 35.2792 -85.9900 146° Southeast 468 539 26,900 -2,750 Descending Atlanta Center
Tue 08:04:07 PM 35.1742 -85.9089 148° Southeast 461 531 24,200 -1,450 Descending Atlanta Center
Tue 08:05:07 PM 35.0731 -85.8281 147° Southeast 450 518 24,000 -100 Descending Atlanta Center
Tue 08:06:07 PM 34.9700 -85.7497 148° Southeast 445 512 24,000  Level Atlanta Center
Tue 08:07:07 PM 34.8667 -85.6692 147° Southeast 445 512 24,000  Level Atlanta Center
Tue 08:08:07 PM 34.7614 -85.5861 147° Southeast 445 512 24,000  Level Atlanta Center
Tue 08:09:07 PM 34.6600 -85.5061 147° Southeast 445 512 24,000 -750 Level Atlanta Center
Tue 08:10:07 PM 34.5567 -85.4261 147° Southeast 450 518 22,500 -2,050 Descending Atlanta Center
Tue 08:11:07 PM 34.4572 -85.3514 148° Southeast 444 511 19,900 -2,600 Descending Atlanta Center
Tue 08:12:07 PM 34.3642 -85.2744 146° Southeast 426 490 17,300 -2,700 Descending Atlanta Center
Tue 08:13:07 PM 34.2708 -85.2025 147° Southeast 409 471 14,500 -2,150 Descending Atlanta Center
Tue 08:14:07 PM 34.1817 -85.1361 148° Southeast 391 450 13,000 -750 Descending Atlanta Center
Tue 08:15:07 PM 34.1178 -85.0650 137° Southeast 342 394 13,000  Level Atlanta Center
Tue 08:16:07 PM 34.0597 -84.9892 133° Southeast 311 358 13,000 -800 Level Atlanta Center
Tue 08:17:07 PM 34.0019 -84.9133 133° Southeast 299 344 11,400 -1,550 Descending Atlanta Center
Tue 08:18:07 PM 33.9439 -84.8425 135° Southeast 299 344 9,900 -1,200 Descending Atlanta Center
Tue 08:19:07 PM 33.8711 -84.8344 175° South 264 304 9,000 -1,350 Descending Atlanta Center
Tue 08:20:07 PM 33.8022 -84.8339 180° South 251 289 7,200 -1,500 Descending Atlanta Center
Tue 08:21:07 PM 33.7353 -84.8306 178° South 246 283 6,000 -600 Descending Atlanta Center
Tue 08:22:07 PM 33.6728 -84.8300 180° South 239 275 6,000  Level Atlanta Center
Tue 08:23:07 PM 33.6500 -84.7850 121° Southeast 175 201 6,000 -458 Level Atlanta Center
Tue 08:24:18 PM 33.6500 -84.7000 90° East 191 220 5,000 -824 Descending Atlanta TRACON
Tue 08:25:18 PM 33.6500 -84.6333 90° East 188 216 4,200 -895 Descending Atlanta TRACON
Tue 08:26:12 PM 33.6500 -84.5833 90° East 174 200 3,300 -1,000 Descending Atlanta TRACON

Login

Don't have an account? Register now (free) for customized features, flight alerts, and more!